createdAt,value
2019-04-21T00:00:55.441Z,10.66
2019-04-21T00:01:50.305Z,10.60
2019-04-21T00:03:47.733Z,10.51
2019-04-21T00:04:49.801Z,10.57
2019-04-21T00:06:57.221Z,10.49
2019-04-21T00:07:51.079Z,10.47
2019-04-21T00:09:53.753Z,10.58
2019-04-21T00:10:51.324Z,10.68
2019-04-21T00:12:37.600Z,10.54
2019-04-21T00:13:32.920Z,10.39
2019-04-21T00:15:20.535Z,10.46
2019-04-21T00:16:14.098Z,10.46
2019-04-21T00:18:06.902Z,10.47
2019-04-21T00:19:09.095Z,10.43
2019-04-21T00:20:58.604Z,10.34
2019-04-21T00:22:11.678Z,10.36
2019-04-21T00:24:06.129Z,10.24
2019-04-21T00:25:01.030Z,10.28
2019-04-21T00:26:57.391Z,10.31
2019-04-21T00:27:58.935Z,10.26
2019-04-21T00:29:56.261Z,10.35
2019-04-21T00:30:44.233Z,10.35
2019-04-21T00:32:39.033Z,10.49
2019-04-21T00:33:31.950Z,10.34
2019-04-21T00:35:24.562Z,10.29
2019-04-21T00:36:27.030Z,10.20
2019-04-21T00:38:34.592Z,10.06
2019-04-21T00:39:45.067Z,10.09
2019-04-21T00:41:26.320Z,9.99
2019-04-21T00:42:25.756Z,10.04
2019-04-21T00:44:13.161Z,9.98
2019-04-21T00:45:12.031Z,9.92
2019-04-21T00:47:03.083Z,9.99
2019-04-21T00:48:14.693Z,10.01
2019-04-21T00:50:05.234Z,9.99
2019-04-21T00:51:16.930Z,9.98
2019-04-21T00:54:06.958Z,9.98
2019-04-21T00:55:48.595Z,10.09
2019-04-21T00:56:56.189Z,10.16
2019-04-21T00:58:50.869Z,10.06
2019-04-21T00:59:47.888Z,10.04
2019-04-21T01:01:32.811Z,10.07
2019-04-21T01:02:43.223Z,10.01
2019-04-21T01:04:30.709Z,9.91
2019-04-21T01:05:26.951Z,9.99
2019-04-21T01:07:21.982Z,9.91
2019-04-21T01:08:19.959Z,10.01
2019-04-21T01:10:06.661Z,9.95
2019-04-21T01:11:15.622Z,10.01
2019-04-21T01:13:14.279Z,9.92
2019-04-21T01:14:07.072Z,9.89
2019-04-21T01:16:02.107Z,9.91
2019-04-21T01:16:57.373Z,10.02
2019-04-21T01:18:49.272Z,9.85
2019-04-21T01:19:46.888Z,9.85
2019-04-21T01:21:22.804Z,9.81
2019-04-21T01:22:22.664Z,9.67
2019-04-21T01:24:21.647Z,9.71
2019-04-21T01:25:22.625Z,9.75
2019-04-21T01:27:19.441Z,9.63
2019-04-21T01:28:25.470Z,9.65
2019-04-21T01:30:22.309Z,9.70
2019-04-21T01:31:17.024Z,9.75
2019-04-21T01:33:15.352Z,9.52
2019-04-21T01:34:14.825Z,9.65
2019-04-21T01:36:04.182Z,9.49
2019-04-21T01:37:04.669Z,9.42
2019-04-21T01:39:00.958Z,9.50
2019-04-21T01:40:06.523Z,9.55
2019-04-21T01:41:52.534Z,9.56
2019-04-21T01:42:52.942Z,9.58
2019-04-21T01:44:48.401Z,9.31
2019-04-21T01:45:47.229Z,9.35
2019-04-21T01:47:37.607Z,9.17
2019-04-21T01:48:36.083Z,9.16
2019-04-21T01:50:31.802Z,9.34
2019-04-21T01:51:28.398Z,9.32
2019-04-21T01:53:23.965Z,9.20
2019-04-21T01:54:23.459Z,9.19
2019-04-21T01:56:24.750Z,9.20
2019-04-21T01:57:22.720Z,9.17
2019-04-21T01:59:07.167Z,9.19
2019-04-21T02:00:10.409Z,9.22
2019-04-21T02:02:10.989Z,9.16
2019-04-21T02:03:31.611Z,9.19
2019-04-21T02:05:10.511Z,8.93
2019-04-21T02:06:15.617Z,8.89
2019-04-21T02:07:54.713Z,9.00
2019-04-21T02:09:02.145Z,9.03
2019-04-21T02:10:54.910Z,9.04
2019-04-21T02:11:55.165Z,8.88
2019-04-21T02:13:48.973Z,8.97
2019-04-21T02:14:51.542Z,8.80
2019-04-21T02:16:36.058Z,8.79
2019-04-21T02:17:34.174Z,8.68
2019-04-21T02:19:23.616Z,8.78
2019-04-21T02:20:19.395Z,8.64
2019-04-21T02:22:33.900Z,8.78
2019-04-21T02:23:34.585Z,8.76
2019-04-21T02:25:13.989Z,8.89
2019-04-21T02:26:16.369Z,8.89
2019-04-21T02:28:12.489Z,8.89
2019-04-21T02:29:17.095Z,8.78
2019-04-21T02:31:18.608Z,8.70
2019-04-21T02:32:11.758Z,8.73
2019-04-21T02:35:25.509Z,8.60
2019-04-21T02:37:13.238Z,8.54
2019-04-21T02:39:48.930Z,8.50
2019-04-21T02:42:45.923Z,8.70
2019-04-21T02:43:46.129Z,8.70
2019-04-21T02:45:38.208Z,8.65
2019-04-21T02:46:42.178Z,8.70
2019-04-21T02:48:32.918Z,8.82
2019-04-21T02:51:23.784Z,8.68
2019-04-21T02:52:31.694Z,8.50
2019-04-21T02:55:07.797Z,8.49
2019-04-21T02:57:08.935Z,8.46
2019-04-21T02:58:06.113Z,8.50
2019-04-21T03:00:55.526Z,8.43
2019-04-21T03:02:48.358Z,8.37
2019-04-21T03:05:46.856Z,8.39
2019-04-21T03:06:40.156Z,8.45
2019-04-21T03:08:42.996Z,8.46
2019-04-21T03:09:35.749Z,8.46
2019-04-21T03:11:25.170Z,8.60
2019-04-21T03:12:24.541Z,8.65
2019-04-21T03:14:28.290Z,8.71
2019-04-21T03:15:23.547Z,8.70
2019-04-21T03:17:18.293Z,8.57
2019-04-21T03:20:14.712Z,8.42
2019-04-21T03:21:07.147Z,8.42
2019-04-21T03:23:02.139Z,8.31
2019-04-21T03:23:59.711Z,8.32
2019-04-21T03:25:49.753Z,8.17
2019-04-21T03:26:59.116Z,8.09
2019-04-21T03:28:47.441Z,8.10
2019-04-21T03:29:46.126Z,8.13
2019-04-21T03:32:04.127Z,8.18
2019-04-21T03:33:09.586Z,8.20
2019-04-21T03:36:02.105Z,8.24
2019-04-21T03:37:36.986Z,8.29
2019-04-21T03:38:29.333Z,8.25
2019-04-21T03:40:16.698Z,8.24
2019-04-21T03:41:26.167Z,8.21
2019-04-21T03:43:14.757Z,8.18
2019-04-21T03:44:13.040Z,8.22
2019-04-21T03:45:58.843Z,8.32
2019-04-21T03:48:53.978Z,8.21
2019-04-21T03:50:04.795Z,8.20
2019-04-21T03:51:45.812Z,8.14
2019-04-21T03:54:41.464Z,8.04
2019-04-21T03:55:58.677Z,7.99
2019-04-21T03:57:50.493Z,7.88
2019-04-21T04:00:42.493Z,7.76
2019-04-21T04:01:21.977Z,7.81
2019-04-21T04:03:33.345Z,7.95
2019-04-21T04:06:13.379Z,8.06
2019-04-21T04:07:18.741Z,7.99
2019-04-21T04:10:14.120Z,7.85
2019-04-21T04:11:55.168Z,7.92
2019-04-21T04:12:57.630Z,7.88
2019-04-21T04:23:31.056Z,7.96
2019-04-21T04:24:36.384Z,8.14
2019-04-21T04:27:35.167Z,8.02
2019-04-21T04:29:12.274Z,8.00
2019-04-21T04:30:12.452Z,7.92
2019-04-21T04:32:00.734Z,7.95
2019-04-21T04:32:56.476Z,7.95
2019-04-21T04:35:14.474Z,8.17
2019-04-21T04:36:01.544Z,8.12
2019-04-21T04:38:03.756Z,7.95
2019-04-21T04:39:06.743Z,8.13
2019-04-21T04:40:41.442Z,8.10
2019-04-21T04:42:00.314Z,8.03
2019-04-21T04:44:46.583Z,7.94
2019-04-21T04:46:28.580Z,7.92
2019-04-21T04:47:22.814Z,7.95
2019-04-21T04:49:39.680Z,8.00
2019-04-21T04:50:19.754Z,8.02
2019-04-21T04:53:31.191Z,8.12
2019-04-21T04:56:03.681Z,7.88
2019-04-21T04:57:59.391Z,8.00
2019-04-21T05:00:53.708Z,8.06
2019-04-21T05:04:59.246Z,8.17
2019-04-21T05:06:45.986Z,8.34
2019-04-21T05:07:46.509Z,8.29
2019-04-21T05:10:41.679Z,8.27
2019-04-21T05:12:16.064Z,8.25
2019-04-21T05:13:18.388Z,8.32
2019-04-21T05:15:13.153Z,8.40
2019-04-21T05:16:24.063Z,8.52
2019-04-21T05:18:10.406Z,8.58
2019-04-21T05:21:10.572Z,8.67
2019-04-21T05:21:55.284Z,8.64
2019-04-21T05:23:44.344Z,8.67
2019-04-21T05:24:37.717Z,8.67
2019-04-21T05:26:36.076Z,8.82
2019-04-21T05:27:29.299Z,8.93
2019-04-21T05:29:19.467Z,9.04
2019-04-21T05:30:33.942Z,9.19
2019-04-21T05:32:29.808Z,9.31
2019-04-21T05:33:25.920Z,9.42
2019-04-21T05:35:14.511Z,9.44
2019-04-21T05:36:15.638Z,9.62
2019-04-21T05:38:06.013Z,9.62
2019-04-21T05:39:06.863Z,9.70
2019-04-21T05:40:52.411Z,9.99
2019-04-21T05:41:48.893Z,10.09
2019-04-21T05:43:54.477Z,10.36
2019-04-21T05:44:59.855Z,10.32
2019-04-21T05:46:49.625Z,10.83
2019-04-21T05:47:48.646Z,11.09
2019-04-21T05:49:35.415Z,11.63
2019-04-21T05:50:34.415Z,12.15
2019-04-21T05:52:29.083Z,14.39
2019-04-21T05:55:24.667Z,15.64
2019-04-21T05:56:22.348Z,15.60
2019-04-21T05:58:13.191Z,15.41
2019-04-21T05:59:14.914Z,15.35
2019-04-21T06:01:15.140Z,15.80
2019-04-21T06:02:20.913Z,15.44
2019-04-21T06:04:05.413Z,15.22
2019-04-21T06:05:18.490Z,15.20
2019-04-21T06:07:01.520Z,15.07
2019-04-21T06:07:56.451Z,14.95
2019-04-21T06:09:56.903Z,14.53
2019-04-21T06:10:55.079Z,13.96
2019-04-21T06:12:44.289Z,15.12
2019-04-21T06:15:39.532Z,17.10
2019-04-21T06:16:36.470Z,17.66
2019-04-21T06:18:35.371Z,18.38
2019-04-21T06:19:35.175Z,18.75
2019-04-21T06:21:18.932Z,19.38
2019-04-21T06:22:15.123Z,19.02
2019-04-21T06:24:10.151Z,19.17
2019-04-21T06:27:26.379Z,19.76
2019-04-21T06:28:04.713Z,20.30
2019-04-21T06:31:05.850Z,20.94
2019-04-21T06:32:50.518Z,20.61
2019-04-21T06:33:48.803Z,20.72
2019-04-21T06:36:45.184Z,20.83
2019-04-21T06:38:46.930Z,20.05
2019-04-21T06:39:40.506Z,20.33
2019-04-21T06:41:32.605Z,21.08
2019-04-21T06:42:25.739Z,21.37
2019-04-21T06:44:16.233Z,19.94
2019-04-21T06:45:27.628Z,20.66
2019-04-21T06:47:25.677Z,21.49
2019-04-21T06:48:20.770Z,21.82
2019-04-21T06:50:07.670Z,22.57
2019-04-21T06:51:10.712Z,22.88
2019-04-21T06:53:21.010Z,23.59
2019-04-21T06:55:51.672Z,21.05
2019-04-21T06:57:16.977Z,20.27
2019-04-21T06:58:42.837Z,20.05
2019-04-21T06:59:38.378Z,20.40
2019-04-21T07:01:42.180Z,21.34
2019-04-21T07:02:42.528Z,21.27
2019-04-21T07:04:31.253Z,20.72
2019-04-21T07:05:33.571Z,21.30
2019-04-21T07:07:26.184Z,20.16
2019-04-21T07:10:14.981Z,19.83
2019-04-21T07:11:12.468Z,20.46
2019-04-21T07:13:03.749Z,21.48
2019-04-21T07:14:25.957Z,22.17
2019-04-21T07:16:07.278Z,20.85
2019-04-21T07:17:05.284Z,19.40
2019-04-21T07:19:01.163Z,19.97
2019-04-21T07:19:55.955Z,20.34
2019-04-21T07:21:48.023Z,21.09
2019-04-21T07:22:50.917Z,21.68
2019-04-21T07:24:36.784Z,22.56
2019-04-21T07:25:39.274Z,22.96
2019-04-21T07:27:35.412Z,21.89
2019-04-21T07:28:32.151Z,21.90
2019-04-21T07:30:28.013Z,21.19
2019-04-21T07:31:25.462Z,20.82
2019-04-21T07:33:46.229Z,20.34
2019-04-21T07:34:23.927Z,20.23
2019-04-21T07:36:17.425Z,21.13
2019-04-21T07:37:06.571Z,21.34
2019-04-21T07:39:00.232Z,21.18
2019-04-21T07:40:01.764Z,20.88
2019-04-21T07:41:49.654Z,20.50
2019-04-21T07:42:49.907Z,21.15
2019-04-21T07:44:44.735Z,20.27
2019-04-21T07:45:41.927Z,20.83
2019-04-21T07:47:40.536Z,21.21
2019-04-21T07:48:38.114Z,21.98
2019-04-21T07:50:34.732Z,22.93
2019-04-21T07:51:31.832Z,22.84
2019-04-21T07:53:27.678Z,22.26
2019-04-21T07:54:34.210Z,22.78
2019-04-21T07:56:06.619Z,22.29
2019-04-21T07:57:12.677Z,21.53
2019-04-21T07:59:12.760Z,21.08
2019-04-21T08:00:29.598Z,21.12
2019-04-21T08:02:02.359Z,21.64
2019-04-21T08:03:09.313Z,22.11
2019-04-21T08:05:04.138Z,22.61
2019-04-21T08:05:59.105Z,21.82
2019-04-21T08:07:52.110Z,22.49
2019-04-21T08:08:46.738Z,22.66
2019-04-21T08:10:38.056Z,22.23
2019-04-21T08:11:37.102Z,22.67
2019-04-21T08:13:48.140Z,23.32
2019-04-21T08:14:38.263Z,23.87
2019-04-21T08:16:24.226Z,23.38
2019-04-21T08:17:24.152Z,22.63
2019-04-21T08:19:23.495Z,23.44
2019-04-21T08:20:18.456Z,22.61
2019-04-21T08:22:15.722Z,23.31
2019-04-21T08:23:13.069Z,23.18
2019-04-21T08:25:02.860Z,22.64
2019-04-21T08:26:06.117Z,22.15
2019-04-21T08:28:01.540Z,21.24
2019-04-21T08:28:56.376Z,21.98
2019-04-21T08:30:47.895Z,22.97
2019-04-21T08:31:57.910Z,23.77
2019-04-21T08:34:05.991Z,24.70
2019-04-21T08:34:42.951Z,24.70
2019-04-21T08:36:33.938Z,24.67
2019-04-21T08:37:30.938Z,24.86
2019-04-21T08:39:31.279Z,25.11
2019-04-21T08:40:34.668Z,24.36
2019-04-21T08:42:18.001Z,24.52
2019-04-21T08:43:30.801Z,24.77
2019-04-21T08:45:17.972Z,24.84
2019-04-21T08:46:16.949Z,25.46
2019-04-21T08:48:04.658Z,25.96
2019-04-21T08:49:09.380Z,26.27
2019-04-21T08:51:05.939Z,26.04
2019-04-21T08:52:21.238Z,26.04
2019-04-21T08:53:53.493Z,26.06
2019-04-21T08:54:56.052Z,26.41
2019-04-21T08:56:46.770Z,26.61
2019-04-21T08:57:50.685Z,26.01
2019-04-21T08:59:36.363Z,26.65
2019-04-21T09:00:38.906Z,26.88
2019-04-21T09:02:29.476Z,27.31
2019-04-21T09:03:29.898Z,26.84
2019-04-21T09:05:28.103Z,26.56
2019-04-21T09:08:20.181Z,26.54
2019-04-21T09:09:21.010Z,26.42
2019-04-21T09:11:05.301Z,25.83
2019-04-21T09:12:07.232Z,25.60
2019-04-21T09:15:01.186Z,25.78
2019-04-21T09:16:50.305Z,26.91
2019-04-21T09:17:44.767Z,27.31
2019-04-21T09:19:50.996Z,27.74
2019-04-21T09:22:40.117Z,27.05
2019-04-21T09:23:39.613Z,27.39
2019-04-21T09:25:38.365Z,28.45
2019-04-21T09:26:29.235Z,27.38
2019-04-21T09:28:19.905Z,26.64
2019-04-21T09:29:16.038Z,24.99
2019-04-21T09:31:01.327Z,25.01
2019-04-21T09:31:59.585Z,25.69
2019-04-21T09:33:53.949Z,26.78
2019-04-21T09:34:52.413Z,26.96
2019-04-21T09:36:49.538Z,26.31
2019-04-21T09:37:51.673Z,25.49
2019-04-21T09:39:40.993Z,25.72
2019-04-21T09:40:40.342Z,26.49
2019-04-21T09:42:36.058Z,25.64
2019-04-21T09:43:36.478Z,25.93
2019-04-21T09:45:22.914Z,26.76
2019-04-21T09:46:23.124Z,27.08
2019-04-21T09:48:18.997Z,26.76
2019-04-21T09:49:20.205Z,26.13
2019-04-21T09:51:08.585Z,25.17
2019-04-21T09:52:13.666Z,25.78
2019-04-21T09:54:05.774Z,27.03
2019-04-21T09:55:06.996Z,27.20
2019-04-21T09:56:58.599Z,26.86
2019-04-21T09:57:56.968Z,26.20
2019-04-21T09:59:55.989Z,25.12
2019-04-21T10:01:00.148Z,25.93
2019-04-21T10:02:49.490Z,26.38
2019-04-21T10:03:43.496Z,25.82
2019-04-21T10:05:31.706Z,25.74
2019-04-21T10:06:31.268Z,25.63
2019-04-21T10:08:25.043Z,24.92
2019-04-21T10:09:24.295Z,25.14
2019-04-21T10:11:19.170Z,25.66
2019-04-21T10:12:16.630Z,25.12
2019-04-21T10:14:09.773Z,26.27
2019-04-21T10:15:10.551Z,27.13
2019-04-21T10:17:03.066Z,27.25
2019-04-21T10:18:02.735Z,27.18
2019-04-21T10:19:55.177Z,27.49
2019-04-21T10:20:54.910Z,27.08
2019-04-21T10:22:48.922Z,27.49
2019-04-21T10:23:47.968Z,27.74
2019-04-21T10:25:40.920Z,27.98
2019-04-21T10:26:40.977Z,28.17
2019-04-21T10:28:33.183Z,28.30
2019-04-21T10:29:34.874Z,27.53
2019-04-21T10:31:26.969Z,27.72
2019-04-21T10:32:25.956Z,28.13
2019-04-21T10:34:19.132Z,27.77
2019-04-21T10:35:21.094Z,27.65
2019-04-21T10:37:13.300Z,26.91
2019-04-21T10:38:25.229Z,27.27
2019-04-21T10:40:05.374Z,28.08
2019-04-21T10:41:05.495Z,26.61
2019-04-21T10:42:58.702Z,26.11
2019-04-21T10:43:59.073Z,26.56
2019-04-21T10:45:52.762Z,27.39
2019-04-21T10:46:53.645Z,27.80
2019-04-21T10:48:44.296Z,27.71
2019-04-21T10:49:44.782Z,27.90
2019-04-21T10:51:37.034Z,27.86
2019-04-21T10:52:37.361Z,26.79
2019-04-21T10:54:49.240Z,25.12
2019-04-21T10:55:45.045Z,24.98
2019-04-21T10:57:22.495Z,24.77
2019-04-21T10:58:22.642Z,24.53
2019-04-21T11:00:16.030Z,24.24
2019-04-21T11:01:15.172Z,24.36
2019-04-21T11:03:08.788Z,24.41
2019-04-21T11:04:20.007Z,24.00
2019-04-21T11:06:01.049Z,22.19
2019-04-21T11:07:06.681Z,22.21
2019-04-21T11:08:55.581Z,22.41
2019-04-21T11:09:53.963Z,22.49
2019-04-21T11:11:48.195Z,22.74
2019-04-21T11:12:47.573Z,22.51
2019-04-21T11:14:38.999Z,22.30
2019-04-21T11:15:39.185Z,22.41
2019-04-21T11:17:32.291Z,22.54
2019-04-21T11:18:31.748Z,22.63
2019-04-21T11:20:24.742Z,22.67
2019-04-21T11:21:24.923Z,22.70
2019-04-21T11:23:19.566Z,22.67
2019-04-21T11:24:18.135Z,22.70
2019-04-21T11:26:10.079Z,22.49
2019-04-21T11:27:10.930Z,22.59
2019-04-21T11:29:05.097Z,22.70
2019-04-21T11:30:03.683Z,22.64
2019-04-21T11:31:56.938Z,22.11
2019-04-21T11:32:57.165Z,21.59
2019-04-21T11:34:49.411Z,21.59
2019-04-21T11:35:49.304Z,21.61
2019-04-21T11:37:42.211Z,21.48
2019-04-21T11:39:00.845Z,21.24
2019-04-21T11:40:36.031Z,21.40
2019-04-21T11:41:35.904Z,21.31
2019-04-21T11:43:27.541Z,21.43
2019-04-21T11:44:28.947Z,21.46
2019-04-21T11:46:20.517Z,21.58
2019-04-21T11:47:20.513Z,21.67
2019-04-21T11:49:13.075Z,21.74
2019-04-21T11:50:13.043Z,21.81
2019-04-21T11:52:07.031Z,21.55
2019-04-21T11:53:07.018Z,21.63
2019-04-21T11:54:58.854Z,21.73
2019-04-21T11:55:58.867Z,21.81
2019-04-21T11:57:51.761Z,21.73
2019-04-21T11:58:51.906Z,21.81
2019-04-21T12:00:45.306Z,21.53
2019-04-21T12:01:44.003Z,21.46
2019-04-21T12:03:37.766Z,21.71
2019-04-21T12:04:37.177Z,21.45
2019-04-21T12:06:37.179Z,21.11
2019-04-21T12:07:29.761Z,21.15
2019-04-21T12:09:23.123Z,20.75
2019-04-21T12:10:23.683Z,20.90
2019-04-21T12:12:15.418Z,20.88
2019-04-21T12:13:16.245Z,21.03
2019-04-21T12:15:08.192Z,21.05
2019-04-21T12:16:07.992Z,21.12
2019-04-21T12:18:01.743Z,21.28
2019-04-21T12:19:00.978Z,21.19
2019-04-21T12:20:53.804Z,21.36
2019-04-21T12:22:04.993Z,21.34
2019-04-21T12:23:46.379Z,21.63
2019-04-21T12:24:47.085Z,21.70
2019-04-21T12:26:40.161Z,21.81
2019-04-21T12:27:40.080Z,21.75
2019-04-21T12:29:31.795Z,21.71
2019-04-21T12:30:31.744Z,21.79
2019-04-21T12:32:24.613Z,21.70
2019-04-21T12:33:24.462Z,21.70
2019-04-21T12:35:17.705Z,21.67
2019-04-21T12:36:17.886Z,21.73
2019-04-21T12:38:10.967Z,21.67
2019-04-21T12:39:10.719Z,21.63
2019-04-21T12:41:02.763Z,21.68
2019-04-21T12:42:02.709Z,21.83
2019-04-21T12:43:56.857Z,21.81
2019-04-21T12:44:57.239Z,21.89
2019-04-21T12:46:49.541Z,21.86
2019-04-21T12:47:50.249Z,21.77
2019-04-21T12:49:41.438Z,21.89
2019-04-21T12:50:41.724Z,21.96
2019-04-21T12:52:33.860Z,22.02
2019-04-21T12:53:34.073Z,21.90
2019-04-21T12:55:31.887Z,21.71
2019-04-21T12:56:27.542Z,21.71
2019-04-21T12:58:19.469Z,21.89
2019-04-21T12:59:19.379Z,21.96
2019-04-21T13:01:12.557Z,21.96
2019-04-21T13:02:13.625Z,22.04
2019-04-21T13:04:05.904Z,22.23
2019-04-21T13:05:05.065Z,22.20
2019-04-21T13:06:59.376Z,22.24
2019-04-21T13:07:57.798Z,22.12
2019-04-21T13:09:50.618Z,22.11
2019-04-21T13:10:51.874Z,22.05
2019-04-21T13:12:43.889Z,22.14
2019-04-21T13:13:43.882Z,22.21
2019-04-21T13:15:37.525Z,22.11
2019-04-21T13:16:37.174Z,22.15
2019-04-21T13:18:29.166Z,22.27
2019-04-21T13:19:29.391Z,22.24
2019-04-21T13:21:22.443Z,22.23
2019-04-21T13:22:21.744Z,22.29
2019-04-21T13:24:15.824Z,22.09
2019-04-21T13:25:16.037Z,22.05
2019-04-21T13:27:08.955Z,21.85
2019-04-21T13:28:07.293Z,21.98
2019-04-21T13:30:00.208Z,21.94
2019-04-21T13:31:00.229Z,21.89
2019-04-21T13:32:53.406Z,21.94
2019-04-21T13:33:52.814Z,21.93
2019-04-21T13:35:46.778Z,22.06
2019-04-21T13:36:45.694Z,22.15
2019-04-21T13:38:45.920Z,21.66
2019-04-21T13:40:01.808Z,21.68
2019-04-21T13:41:42.973Z,21.66
2019-04-21T13:42:39.386Z,21.73
2019-04-21T13:44:24.111Z,21.64
2019-04-21T13:45:24.099Z,21.73
2019-04-21T13:47:17.037Z,21.73
2019-04-21T13:48:16.873Z,21.67
2019-04-21T13:50:11.071Z,21.51
2019-04-21T13:51:09.483Z,21.37
2019-04-21T13:53:02.804Z,21.42
2019-04-21T13:54:02.241Z,21.48
2019-04-21T13:55:56.439Z,21.67
2019-04-21T13:56:56.428Z,21.68
2019-04-21T13:58:48.357Z,21.71
2019-04-21T13:59:49.430Z,21.79
2019-04-21T14:01:41.404Z,22.12
2019-04-21T14:02:42.546Z,22.17
2019-04-21T14:04:33.691Z,22.01
2019-04-21T14:05:33.239Z,22.01
2019-04-21T14:07:26.212Z,22.06
2019-04-21T14:08:27.352Z,22.08
2019-04-21T14:10:19.862Z,21.90
2019-04-21T14:11:19.762Z,21.83
2019-04-21T14:13:12.146Z,21.83
2019-04-21T14:14:12.420Z,21.79
2019-04-21T14:16:04.319Z,21.89
2019-04-21T14:17:05.523Z,22.02
2019-04-21T14:18:57.236Z,22.08
2019-04-21T14:19:57.288Z,21.96
2019-04-21T14:21:52.687Z,21.91
2019-04-21T14:22:49.748Z,21.96
2019-04-21T14:24:43.788Z,21.90
2019-04-21T14:25:43.743Z,21.89
2019-04-21T14:27:36.359Z,22.04
2019-04-21T14:28:36.645Z,22.04
2019-04-21T14:30:28.437Z,21.67
2019-04-21T14:31:28.413Z,21.63
2019-04-21T14:33:23.488Z,21.63
2019-04-21T14:34:21.836Z,21.63
2019-04-21T14:36:14.814Z,21.67
2019-04-21T14:37:14.747Z,21.64
2019-04-21T14:39:06.512Z,21.75
2019-04-21T14:40:09.060Z,21.68
2019-04-21T14:42:00.171Z,21.71
2019-04-21T14:43:00.194Z,21.82
2019-04-21T14:44:51.764Z,21.66
2019-04-21T14:45:52.776Z,21.66
2019-04-21T14:47:44.532Z,21.82
2019-04-21T14:48:45.389Z,21.85
2019-04-21T14:50:37.205Z,21.83
2019-04-21T14:51:37.151Z,21.79
2019-04-21T14:53:30.006Z,21.74
2019-04-21T14:54:30.957Z,21.77
2019-04-21T14:56:22.983Z,21.91
2019-04-21T14:57:23.088Z,21.93
2019-04-21T14:59:15.620Z,21.70
2019-04-21T15:00:15.602Z,21.83
2019-04-21T15:02:09.753Z,21.73
2019-04-21T15:03:09.604Z,21.61
2019-04-21T15:05:02.112Z,21.59
2019-04-21T15:06:01.236Z,21.61
2019-04-21T15:07:55.149Z,21.70
2019-04-21T15:08:55.413Z,21.61
2019-04-21T15:10:47.209Z,21.43
2019-04-21T15:11:47.705Z,21.46
2019-04-21T15:13:39.790Z,21.61
2019-04-21T15:14:40.256Z,21.73
2019-04-21T15:16:33.230Z,21.75
2019-04-21T15:17:33.649Z,21.61
2019-04-21T15:19:26.511Z,21.67
2019-04-21T15:20:25.722Z,21.70
2019-04-21T15:22:18.546Z,21.66
2019-04-21T15:23:18.031Z,21.70
2019-04-21T15:25:11.969Z,21.68
2019-04-21T15:26:10.551Z,21.46
2019-04-21T15:28:03.601Z,21.49
2019-04-21T15:29:04.597Z,21.55
2019-04-21T15:30:56.670Z,21.52
2019-04-21T15:31:56.840Z,21.49
2019-04-21T15:33:49.569Z,21.58
2019-04-21T15:34:49.903Z,21.56
2019-04-21T15:36:42.012Z,21.63
2019-04-21T15:37:42.060Z,21.67
2019-04-21T15:39:34.645Z,21.73
2019-04-21T15:40:41.880Z,21.66
2019-04-21T15:42:28.381Z,21.66
2019-04-21T15:43:28.505Z,21.64
2019-04-21T15:45:21.022Z,21.51
2019-04-21T15:46:20.566Z,21.46
2019-04-21T15:48:13.847Z,21.59
2019-04-21T15:49:13.320Z,21.63
2019-04-21T15:51:08.454Z,21.68
2019-04-21T15:52:05.389Z,21.67
2019-04-21T15:53:58.234Z,21.43
2019-04-21T15:54:58.968Z,21.34
2019-04-21T15:56:51.376Z,21.18
2019-04-21T15:57:52.203Z,21.21
2019-04-21T15:59:44.317Z,21.16
2019-04-21T16:00:44.688Z,21.11
2019-04-21T16:02:36.854Z,21.24
2019-04-21T16:03:36.576Z,21.34
2019-04-21T16:05:29.152Z,21.33
2019-04-21T16:06:29.670Z,21.24
2019-04-21T16:08:22.051Z,21.24
2019-04-21T16:09:25.170Z,21.13
2019-04-21T16:11:15.768Z,21.09
2019-04-21T16:12:15.892Z,21.21
2019-04-21T16:14:08.061Z,21.26
2019-04-21T16:15:08.474Z,21.27
2019-04-21T16:17:01.221Z,21.30
2019-04-21T16:18:01.492Z,21.28
2019-04-21T16:19:54.008Z,21.11
2019-04-21T16:20:53.709Z,21.09
2019-04-21T16:22:46.471Z,21.16
2019-04-21T16:23:46.630Z,21.09
2019-04-21T16:25:38.986Z,21.15
2019-04-21T16:26:38.504Z,21.12
2019-04-21T16:28:31.235Z,21.12
2019-04-21T16:29:31.304Z,21.16
2019-04-21T16:31:24.726Z,21.12
2019-04-21T16:32:24.023Z,21.06
2019-04-21T16:34:17.772Z,20.93
2019-04-21T16:35:17.094Z,20.91
2019-04-21T16:37:09.771Z,20.96
2019-04-21T16:38:09.071Z,20.94
2019-04-21T16:40:03.231Z,20.90
2019-04-21T16:41:05.495Z,20.91
2019-04-21T16:42:54.567Z,20.88
2019-04-21T16:43:55.425Z,20.83
2019-04-21T16:45:48.702Z,20.75
2019-04-21T16:46:47.589Z,20.78
2019-04-21T16:48:39.995Z,20.72
2019-04-21T16:49:40.109Z,20.72
2019-04-21T16:51:33.895Z,20.78
2019-04-21T16:52:34.117Z,20.72
2019-04-21T16:54:26.272Z,20.78
2019-04-21T16:55:26.493Z,20.79
2019-04-21T16:57:19.622Z,20.66
2019-04-21T16:58:23.101Z,20.69
2019-04-21T17:00:10.843Z,20.56
2019-04-21T17:01:15.925Z,20.66
2019-04-21T17:03:04.319Z,20.56
2019-04-21T17:04:04.599Z,20.56
2019-04-21T17:05:56.316Z,20.46
2019-04-21T17:06:56.321Z,20.48
2019-04-21T17:08:50.462Z,20.34
2019-04-21T17:09:50.535Z,20.35
2019-04-21T17:11:44.647Z,20.34
2019-04-21T17:12:43.250Z,20.27
2019-04-21T17:14:51.177Z,20.23
2019-04-21T17:15:51.754Z,20.26
2019-04-21T17:17:50.018Z,20.17
2019-04-21T17:18:44.883Z,20.13
2019-04-21T17:20:34.166Z,20.02
2019-04-21T17:21:21.554Z,20.02
2019-04-21T17:23:13.461Z,19.97
2019-04-21T17:24:14.482Z,20.00
2019-04-21T17:26:05.918Z,19.95
2019-04-21T17:27:07.002Z,19.94
2019-04-21T17:28:58.814Z,19.79
2019-04-21T17:29:59.009Z,19.82
2019-04-21T17:31:51.324Z,19.80
2019-04-21T17:32:51.939Z,19.72
2019-04-21T17:34:44.028Z,19.70
2019-04-21T17:35:44.909Z,19.58
2019-04-21T17:37:38.230Z,19.49
2019-04-21T17:38:36.673Z,19.50
2019-04-21T17:40:29.698Z,19.39
2019-04-21T17:41:37.696Z,19.45
2019-04-21T17:43:23.625Z,19.35
2019-04-21T17:44:23.390Z,19.30
2019-04-21T17:46:23.074Z,19.21
2019-04-21T17:47:22.478Z,19.21
2019-04-21T17:49:08.629Z,19.13
2019-04-21T17:50:07.867Z,19.17
2019-04-21T17:52:03.954Z,19.10
2019-04-21T17:53:06.332Z,18.91
2019-04-21T17:54:59.408Z,18.83
2019-04-21T17:56:15.233Z,18.83
2019-04-21T17:58:03.152Z,18.82
2019-04-21T17:59:07.261Z,18.78
2019-04-21T18:01:20.919Z,18.69
2019-04-21T18:02:02.425Z,18.64
2019-04-21T18:03:58.993Z,18.35
2019-04-21T18:04:58.473Z,18.34
2019-04-21T18:06:39.353Z,18.26
2019-04-21T18:07:45.378Z,18.21
2019-04-21T18:09:47.048Z,18.09
2019-04-21T18:10:30.641Z,18.04
2019-04-21T18:12:26.607Z,18.02
2019-04-21T18:13:12.782Z,17.95
2019-04-21T18:15:18.175Z,17.83
2019-04-21T18:16:13.346Z,17.76
2019-04-21T18:17:54.711Z,17.74
2019-04-21T18:18:55.123Z,17.71
2019-04-21T18:20:47.964Z,17.54
2019-04-21T18:21:54.118Z,17.53
2019-04-21T18:23:50.636Z,17.42
2019-04-21T18:24:48.927Z,17.33
2019-04-21T18:26:40.678Z,17.15
2019-04-21T18:27:32.721Z,17.20
2019-04-21T18:29:25.622Z,17.27
2019-04-21T18:30:26.523Z,17.10
2019-04-21T18:32:27.635Z,17.07
2019-04-21T18:33:27.093Z,17.05
2019-04-21T18:35:13.517Z,17.05
2019-04-21T18:36:15.825Z,16.88
2019-04-21T18:38:13.278Z,16.80
2019-04-21T18:39:19.774Z,16.63
2019-04-21T18:40:57.945Z,16.45
2019-04-21T18:42:17.246Z,16.50
2019-04-21T18:44:15.468Z,16.42
2019-04-21T18:45:29.620Z,16.47
2019-04-21T18:47:07.234Z,16.40
2019-04-21T18:47:53.959Z,16.30
2019-04-21T18:49:35.342Z,16.16
2019-04-21T18:50:41.838Z,16.27
2019-04-21T18:52:45.590Z,16.33
2019-04-21T18:53:35.197Z,16.42
2019-04-21T18:55:29.463Z,16.54
2019-04-21T18:56:20.875Z,16.44
2019-04-21T18:58:15.276Z,16.32
2019-04-21T18:59:12.468Z,16.26
2019-04-21T19:01:11.834Z,16.14
2019-04-21T19:02:09.603Z,16.14
2019-04-21T19:03:58.288Z,16.08
2019-04-21T19:05:04.461Z,15.92
2019-04-21T19:07:10.845Z,15.86
2019-04-21T19:08:13.356Z,15.84
2019-04-21T19:10:19.210Z,15.80
2019-04-21T19:11:01.113Z,15.80
2019-04-21T19:13:20.079Z,15.62
2019-04-21T19:14:10.747Z,15.68
2019-04-21T19:16:01.327Z,15.55
2019-04-21T19:16:57.842Z,15.52
2019-04-21T19:18:56.864Z,15.43
2019-04-21T19:19:50.425Z,15.40
2019-04-21T19:21:24.206Z,15.35
2019-04-21T19:22:32.899Z,15.43
2019-04-21T19:24:44.997Z,15.38
2019-04-21T19:25:23.218Z,15.49
2019-04-21T19:27:41.853Z,15.53
2019-04-21T19:28:16.858Z,15.48
2019-04-21T19:31:20.144Z,15.55
2019-04-21T19:33:04.226Z,15.58
2019-04-21T19:33:57.375Z,15.55
2019-04-21T19:35:39.247Z,15.58
2019-04-21T19:36:46.677Z,15.60
2019-04-21T19:38:45.801Z,15.49
2019-04-21T19:39:43.169Z,15.46